createdAt,value
2022-08-19T00:01:00.084Z,4.68
2022-08-19T00:06:02.984Z,5.57
2022-08-19T00:11:05.993Z,4.63
2022-08-19T00:16:10.437Z,4.03
2022-08-19T00:21:13.331Z,5.32
2022-08-19T00:31:20.347Z,5.15
2022-08-19T00:36:23.121Z,8.23
2022-08-19T00:41:26.343Z,8.30
2022-08-19T00:46:30.876Z,9.20
2022-08-19T00:51:34.029Z,7.70
2022-08-19T00:56:36.981Z,11.30
2022-08-19T01:01:42.115Z,7.70
2022-08-19T01:06:44.973Z,9.68
2022-08-19T01:11:48.148Z,7.40
2022-08-19T01:16:55.467Z,9.00
2022-08-19T01:22:01.809Z,10.77
2022-08-19T01:27:18.784Z,12.43
2022-08-19T01:32:33.198Z,9.00
2022-08-19T01:37:43.991Z,13.43
2022-08-19T01:42:48.712Z,12.88
2022-08-19T01:48:01.032Z,12.80
2022-08-19T01:53:07.761Z,13.35
2022-08-19T01:58:14.361Z,14.30
2022-08-19T02:03:17.100Z,9.40
2022-08-19T02:08:20.252Z,9.82
2022-08-19T02:13:26.461Z,5.80
2022-08-19T02:18:29.412Z,10.35
2022-08-19T02:23:33.282Z,8.40
2022-08-19T02:28:37.411Z,9.05
2022-08-19T02:33:40.475Z,8.52
2022-08-19T02:38:43.172Z,6.68
2022-08-19T02:44:26.252Z,8.35
2022-08-19T02:49:17.337Z,10.00
2022-08-19T02:54:20.504Z,6.35
2022-08-19T02:59:25.652Z,8.15
2022-08-19T03:04:28.515Z,11.35
2022-08-19T03:09:31.642Z,8.40
2022-08-19T03:14:36.484Z,10.30
2022-08-19T03:19:39.360Z,7.97
2022-08-19T03:24:43.001Z,8.77
2022-08-19T03:29:47.033Z,9.43
2022-08-19T03:34:53.198Z,9.63
2022-08-19T03:39:56.027Z,8.50
2022-08-19T03:45:00.805Z,8.85
2022-08-19T03:50:03.742Z,9.55
2022-08-19T03:55:07.159Z,7.97
2022-08-19T04:00:12.846Z,9.10
2022-08-19T04:05:16.799Z,10.95
2022-08-19T04:10:19.616Z,11.90
2022-08-19T04:15:23.767Z,8.93
2022-08-19T04:20:26.490Z,11.57
2022-08-19T04:25:29.268Z,8.80
2022-08-19T04:30:33.348Z,10.15
2022-08-19T04:35:40.201Z,10.32
2022-08-19T04:41:01.038Z,9.55
2022-08-19T04:46:09.010Z,7.20
2022-08-19T04:51:14.188Z,13.50
2022-08-19T04:56:22.645Z,12.65
2022-08-19T05:01:29.509Z,13.10
2022-08-19T05:06:34.761Z,9.73
2022-08-19T05:11:42.848Z,13.00
2022-08-19T05:16:47.367Z,15.63
2022-08-19T05:22:07.611Z,11.65
2022-08-19T05:27:10.340Z,11.88
2022-08-19T05:32:14.472Z,14.13
2022-08-19T05:37:17.934Z,11.88
2022-08-19T05:42:21.523Z,14.52
2022-08-19T05:47:25.732Z,13.23
2022-08-19T05:52:29.303Z,13.85
2022-08-19T05:57:33.227Z,12.73
2022-08-19T06:02:37.562Z,15.65
2022-08-19T06:07:40.919Z,17.95
2022-08-19T06:12:43.896Z,18.33
2022-08-19T06:17:47.987Z,15.05
2022-08-19T06:22:52.607Z,15.55
2022-08-19T06:28:13.891Z,18.17
2022-08-19T06:33:19.244Z,16.33
2022-08-19T06:38:24.473Z,19.45
2022-08-19T06:43:28.181Z,16.50
2022-08-19T06:48:36.599Z,16.67
2022-08-19T06:53:41.823Z,16.48
2022-08-19T06:58:44.895Z,20.00
2022-08-19T07:03:49.432Z,13.82
2022-08-19T07:08:53.160Z,21.38
2022-08-19T07:13:59.037Z,18.63
2022-08-19T07:19:15.491Z,18.05
2022-08-19T07:24:19.470Z,17.15
2022-08-19T07:29:24.094Z,22.60
2022-08-19T07:34:30.805Z,20.67
2022-08-19T07:39:35.451Z,24.92
2022-08-19T07:49:48.072Z,23.98
2022-08-19T07:54:51.297Z,51.45
2022-08-19T07:59:54.012Z,25.05
2022-08-19T08:05:18.081Z,25.50
2022-08-19T08:10:21.597Z,29.65
2022-08-19T08:15:27.177Z,27.92
2022-08-19T08:20:33.430Z,32.03
2022-08-19T08:25:37.456Z,29.30
2022-08-19T08:30:45.305Z,32.60
2022-08-19T08:35:49.512Z,31.48
2022-08-19T08:40:55.702Z,27.58
2022-08-19T08:46:03.352Z,32.35
2022-08-19T08:51:09.771Z,35.15
2022-08-19T08:56:17.105Z,32.53
2022-08-19T09:01:21.751Z,35.80
2022-08-19T09:06:30.197Z,33.28
2022-08-19T09:11:42.624Z,31.23
2022-08-19T09:16:47.018Z,37.38
2022-08-19T09:21:51.524Z,33.30
2022-08-19T09:26:54.415Z,43.05
2022-08-19T09:31:57.144Z,36.35
2022-08-19T09:37:01.244Z,35.20
2022-08-19T09:42:04.490Z,23.23
2022-08-19T09:52:13.714Z,27.15
2022-08-19T09:57:19.137Z,17.40
2022-08-19T10:02:22.034Z,29.42
2022-08-19T10:12:33.953Z,16.30
2022-08-19T10:17:37.161Z,22.95
2022-08-19T10:22:39.854Z,16.92
2022-08-19T10:27:46.559Z,22.02
2022-08-19T10:32:54.007Z,18.23
2022-08-19T10:38:00.219Z,18.58
2022-08-19T10:43:06.324Z,17.75
2022-08-19T10:48:09.029Z,16.52
2022-08-19T10:53:18.211Z,15.77
2022-08-19T10:58:26.128Z,9.85
2022-08-19T11:03:30.819Z,12.70
2022-08-19T11:08:34.410Z,15.02
2022-08-19T11:13:39.503Z,15.77
2022-08-19T11:18:45.215Z,14.88
2022-08-19T11:23:49.228Z,13.13
2022-08-19T11:28:55.190Z,10.07
2022-08-19T11:33:58.576Z,9.40
2022-08-19T11:39:01.728Z,6.90
2022-08-19T11:44:06.137Z,3.60
2022-08-19T11:49:13.833Z,3.83
2022-08-19T11:54:17.412Z,4.00
2022-08-19T11:59:21.492Z,3.75
2022-08-19T12:04:24.795Z,3.00
2022-08-19T12:09:28.032Z,2.20
2022-08-19T12:14:35.562Z,2.22
2022-08-19T12:19:38.528Z,2.67
2022-08-19T12:24:41.228Z,1.23
2022-08-19T12:29:45.325Z,3.30
2022-08-19T12:34:48.694Z,1.88
2022-08-19T12:39:51.504Z,1.95
2022-08-19T12:44:55.928Z,1.40
2022-08-19T12:49:59.241Z,1.60
2022-08-19T12:55:02.002Z,1.50
2022-08-19T13:00:11.640Z,2.00
2022-08-19T13:05:16.897Z,1.45
2022-08-19T13:10:21.867Z,1.55
2022-08-19T13:15:25.963Z,1.90
2022-08-19T13:20:29.524Z,1.88
2022-08-19T13:25:32.238Z,1.50
2022-08-19T13:30:54.522Z,1.15
2022-08-19T13:36:01.804Z,1.63
2022-08-19T13:41:11.073Z,1.70
2022-08-19T13:46:17.438Z,1.83
2022-08-19T13:51:20.171Z,3.60
2022-08-19T13:56:26.017Z,3.70
2022-08-19T14:01:31.570Z,3.17
2022-08-19T14:06:35.225Z,3.65
2022-08-19T14:11:38.470Z,2.78
2022-08-19T14:16:42.585Z,4.18
2022-08-19T14:21:45.826Z,2.75
2022-08-19T14:26:49.798Z,2.90
2022-08-19T14:31:54.229Z,4.03
2022-08-19T14:36:57.025Z,4.55
2022-08-19T14:42:00.169Z,6.20
2022-08-19T14:47:05.121Z,3.88
2022-08-19T14:52:08.068Z,4.38
2022-08-19T14:57:13.445Z,4.78
2022-08-19T15:02:33.859Z,4.65
2022-08-19T15:07:39.609Z,3.67
2022-08-19T15:12:43.800Z,5.60
2022-08-19T15:17:48.527Z,4.75
2022-08-19T15:22:52.052Z,5.57
2022-08-19T15:27:55.099Z,6.90
2022-08-19T15:33:00.068Z,8.63
2022-08-19T15:38:02.876Z,8.73
2022-08-19T15:43:05.592Z,7.32
2022-08-19T15:48:09.764Z,5.45
2022-08-19T15:53:13.116Z,7.28
2022-08-19T15:58:33.929Z,8.50
2022-08-19T16:03:55.504Z,7.50
2022-08-19T16:08:58.997Z,7.45
2022-08-19T16:14:02.416Z,7.25
2022-08-19T16:19:11.875Z,8.27
2022-08-19T16:24:16.191Z,6.72
2022-08-19T16:29:33.181Z,5.95
2022-08-19T16:34:40.074Z,7.20
2022-08-19T16:39:43.733Z,8.85
2022-08-19T16:44:47.448Z,6.93
2022-08-19T16:49:53.526Z,5.90
2022-08-19T16:54:57.658Z,7.72
2022-08-19T17:05:04.630Z,6.07
2022-08-19T17:10:10.236Z,5.30
2022-08-19T17:15:13.729Z,6.80
2022-08-19T17:20:18.302Z,5.75
2022-08-19T17:25:21.063Z,5.82
2022-08-19T17:30:24.675Z,7.03
2022-08-19T17:35:29.206Z,4.60
2022-08-19T17:40:32.698Z,6.18
2022-08-19T17:45:36.624Z,5.90
2022-08-19T17:50:41.691Z,5.30
2022-08-19T17:55:44.411Z,5.15
2022-08-19T18:00:53.724Z,5.63
2022-08-19T18:05:58.554Z,4.78
2022-08-19T18:11:01.758Z,6.22
2022-08-19T18:21:08.973Z,4.38
2022-08-19T18:26:11.676Z,4.43
2022-08-19T18:31:15.104Z,4.22
2022-08-19T18:41:54.218Z,3.88
2022-08-19T18:47:14.171Z,4.90
2022-08-19T18:52:17.107Z,3.72
2022-08-19T18:57:24.899Z,5.75
2022-08-19T19:02:29.381Z,5.10
2022-08-19T19:07:32.295Z,6.63
2022-08-19T19:12:37.597Z,8.35
2022-08-19T19:17:42.013Z,8.68
2022-08-19T19:22:45.150Z,9.05
2022-08-19T19:27:50.329Z,7.38
2022-08-19T19:32:54.550Z,8.82
2022-08-19T19:37:59.693Z,9.68
2022-08-19T19:48:09.393Z,11.50
2022-08-19T19:53:13.270Z,5.72
2022-08-19T19:58:20.900Z,12.45
2022-08-19T20:03:32.928Z,8.38
2022-08-19T20:09:08.294Z,14.60
2022-08-19T20:14:13.082Z,10.45
2022-08-19T20:19:18.029Z,8.23
2022-08-19T20:24:22.505Z,11.73
2022-08-19T20:29:40.051Z,7.85
2022-08-19T20:34:49.073Z,8.45
2022-08-19T20:39:51.902Z,8.43
2022-08-19T20:44:54.558Z,7.60
2022-08-19T20:49:59.005Z,8.32
2022-08-19T20:55:02.088Z,5.88
2022-08-19T21:00:07.317Z,9.20
2022-08-19T21:05:11.884Z,9.55
2022-08-19T21:10:15.352Z,10.65
2022-08-19T21:15:18.234Z,18.17
2022-08-19T21:20:22.328Z,6.45
2022-08-19T21:25:25.038Z,11.30
2022-08-19T21:30:28.317Z,5.97
2022-08-19T21:35:32.833Z,8.57
2022-08-19T21:40:36.069Z,9.38
2022-08-19T21:45:38.668Z,9.13
2022-08-19T21:50:43.103Z,10.27
2022-08-19T21:55:53.500Z,7.68
2022-08-19T22:00:56.561Z,10.32
2022-08-19T22:06:00.618Z,11.32
2022-08-19T22:11:03.614Z,9.90
2022-08-19T22:21:12.186Z,13.13
2022-08-19T22:26:16.165Z,11.55
2022-08-19T22:31:19.451Z,10.45
2022-08-19T22:36:23.945Z,13.20
2022-08-19T22:41:27.564Z,11.00
2022-08-19T22:46:33.672Z,13.20
2022-08-19T22:51:55.542Z,14.13
2022-08-19T22:56:58.689Z,12.80
2022-08-19T23:02:01.775Z,5.38
2022-08-19T23:07:07.631Z,11.60
2022-08-19T23:12:12.306Z,13.63
2022-08-19T23:17:15.003Z,8.25
2022-08-19T23:22:25.567Z,9.07
2022-08-19T23:27:45.831Z,12.52
2022-08-19T23:32:48.619Z,12.25
2022-08-19T23:37:53.074Z,15.38
2022-08-19T23:42:56.056Z,13.70
2022-08-19T23:47:59.025Z,15.32
2022-08-19T23:53:03.384Z,12.32
2022-08-19T23:58:07.594Z,10.63
